Time;durP1;ratioP1;P1;durP2;ratioP2;P2;SDS_P1;SDS_P2;PMS_P1;PMS_P2;Temp;Humidity;BMP_temperature;BMP_pressure;BME280_temperature;BME280_humidity;BME280_pressure;Samples;Min_cycle;Max_cycle;Signal;HPM_P1;HPM_P2
2023/08/16 00:01:22;;;;;;;4.63;2.30;;;13.60;99.90;;;;;;5115150;27;20076;-65
2023/08/16 00:03:47;;;;;;;2.22;1.70;;;13.60;99.90;;;;;;5132434;27;20039;-66
2023/08/16 00:06:14;;;;;;;3.67;2.00;;;13.60;99.90;;;;;;5132545;27;20046;-66
2023/08/16 00:08:40;;;;;;;4.70;2.10;;;13.60;99.90;;;;;;5132332;27;20039;-67
2023/08/16 00:11:07;;;;;;;2.65;2.25;;;13.60;99.90;;;;;;5132337;27;20042;-66
2023/08/16 00:13:33;;;;;;;3.28;2.30;;;13.60;99.90;;;;;;5132220;27;20039;-65
2023/08/16 00:16:00;;;;;;;3.63;2.00;;;13.60;99.90;;;;;;5131784;27;20054;-66
2023/08/16 00:18:25;;;;;;;3.47;2.00;;;13.60;99.90;;;;;;5114516;27;20059;-66
2023/08/16 00:20:51;;;;;;;2.45;2.25;;;13.60;99.90;;;;;;5132613;27;20504;-66
2023/08/16 00:23:17;;;;;;;3.20;2.90;;;13.50;99.90;;;;;;5133475;27;20442;-66
2023/08/16 00:25:42;;;;;;;2.83;2.22;;;13.50;99.90;;;;;;5132037;27;20027;-66
2023/08/16 00:28:08;;;;;;;3.50;2.30;;;13.50;99.90;;;;;;5132191;27;20080;-66
2023/08/16 00:30:33;;;;;;;3.75;2.63;;;13.50;99.90;;;;;;5130926;27;20043;-66
2023/08/16 00:32:59;;;;;;;3.38;2.35;;;13.50;99.90;;;;;;5115041;27;20126;-66
2023/08/16 00:35:25;;;;;;;3.47;2.78;;;13.40;99.90;;;;;;5132243;27;20050;-66
2023/08/16 00:37:52;;;;;;;4.53;2.45;;;13.40;99.90;;;;;;5132300;27;20031;-66
2023/08/16 00:40:18;;;;;;;3.45;2.85;;;13.40;99.90;;;;;;5114298;27;20111;-66
2023/08/16 00:42:43;;;;;;;3.85;2.40;;;13.30;99.90;;;;;;5131930;27;20456;-66
2023/08/16 00:45:09;;;;;;;2.20;2.00;;;13.40;99.90;;;;;;5131661;27;20173;-66
2023/08/16 00:47:35;;;;;;;4.10;2.42;;;13.30;99.90;;;;;;5132019;27;20035;-67
2023/08/16 00:50:02;;;;;;;2.67;1.92;;;13.30;99.90;;;;;;5131784;27;20043;-65
2023/08/16 00:52:29;;;;;;;1.95;1.83;;;13.30;99.90;;;;;;5131495;27;20084;-66
2023/08/16 00:54:55;;;;;;;2.38;1.80;;;13.30;99.90;;;;;;5131780;27;20039;-66
2023/08/16 00:57:21;;;;;;;1.98;1.83;;;13.20;99.90;;;;;;5131477;27;20046;-66
2023/08/16 00:59:47;;;;;;;2.17;1.98;;;13.20;99.90;;;;;;5131230;27;20062;-66
2023/08/16 01:02:19;;;;;;;3.58;2.10;;;13.20;99.90;;;;;;5131441;27;20397;-66
2023/08/16 01:04:46;;;;;;;2.97;2.30;;;13.20;99.90;;;;;;5131204;27;20070;-66
2023/08/16 01:07:12;;;;;;;3.22;2.30;;;13.20;99.90;;;;;;5131543;27;20031;-65
2023/08/16 01:09:37;;;;;;;2.90;2.20;;;13.10;99.90;;;;;;5131022;27;20035;-66
2023/08/16 01:12:22;;;;;;;3.03;2.15;;;13.10;99.90;;;;;;5131334;27;20366;-66
2023/08/16 01:14:57;;;;;;;4.18;1.98;;;13.10;99.90;;;;;;5131051;27;20046;-66
2023/08/16 01:17:24;;;;;;;2.60;2.15;;;13.00;99.90;;;;;;5131272;27;20486;-66
2023/08/16 01:19:53;;;;;;;5.18;2.15;;;13.00;99.90;;;;;;5130609;27;20035;-66
2023/08/16 01:22:42;;;;;;;3.40;2.28;;;13.00;99.90;;;;;;5131117;27;20082;-67
2023/08/16 01:25:13;;;;;;;2.95;1.90;;;13.00;99.90;;;;;;5130294;27;20513;-66
2023/08/16 01:27:38;;;;;;;2.58;2.35;;;13.00;99.90;;;;;;5131004;27;20031;-66
2023/08/16 01:30:07;;;;;;;3.78;2.08;;;12.90;99.90;;;;;;5131760;27;20034;-66
2023/08/16 01:32:33;;;;;;;3.22;1.83;;;12.90;99.90;;;;;;5134242;27;20062;-65
2023/08/16 01:34:59;;;;;;;2.55;2.10;;;12.80;99.90;;;;;;5134167;27;20545;-66
2023/08/16 01:37:25;;;;;;;4.50;1.98;;;12.80;99.90;;;;;;5134399;27;20070;-66
2023/08/16 01:39:51;;;;;;;4.25;2.22;;;12.80;99.90;;;;;;5133635;27;20050;-66
2023/08/16 01:42:17;;;;;;;3.13;2.25;;;12.80;99.90;;;;;;5134134;27;20030;-66
2023/08/16 01:44:48;;;;;;;3.65;2.15;;;12.80;99.90;;;;;;5133745;27;20508;-66
2023/08/16 01:47:15;;;;;;;2.92;2.10;;;12.80;99.90;;;;;;5134119;27;20045;-66
2023/08/16 01:49:42;;;;;;;2.42;2.22;;;12.80;99.90;;;;;;5133775;27;20035;-66
2023/08/16 01:52:08;;;;;;;2.80;1.90;;;12.90;99.90;;;;;;5152423;27;20037;-66
2023/08/16 01:54:34;;;;;;;2.47;1.63;;;12.90;99.90;;;;;;5133995;27;20039;-65
2023/08/16 01:57:00;;;;;;;3.03;1.65;;;12.90;99.90;;;;;;5152603;27;20045;-66
2023/08/16 01:59:26;;;;;;;2.45;2.20;;;12.90;99.90;;;;;;5134075;27;20035;-66
2023/08/16 02:01:51;;;;;;;2.53;2.10;;;12.80;99.90;;;;;;5133911;27;20039;-66
2023/08/16 02:04:17;;;;;;;2.10;1.90;;;12.90;99.90;;;;;;5133968;27;20045;-66
2023/08/16 02:06:43;;;;;;;3.20;1.90;;;12.80;99.90;;;;;;5133795;27;20022;-66
2023/08/16 02:09:09;;;;;;;2.85;1.83;;;12.80;99.90;;;;;;5133850;27;20077;-66
2023/08/16 02:11:35;;;;;;;2.75;2.03;;;12.80;99.90;;;;;;5133553;27;20070;-65
2023/08/16 02:14:00;;;;;;;2.42;1.77;;;12.70;99.90;;;;;;5133766;27;20047;-66
2023/08/16 02:16:26;;;;;;;2.70;1.80;;;12.70;99.90;;;;;;5133758;27;20038;-66
2023/08/16 02:18:52;;;;;;;2.30;1.80;;;12.70;99.90;;;;;;5133425;27;20042;-66
2023/08/16 02:21:18;;;;;;;5.82;2.10;;;12.60;99.90;;;;;;5133527;27;20050;-66
2023/08/16 02:23:43;;;;;;;2.75;1.70;;;12.60;99.90;;;;;;5133708;27;20050;-67
2023/08/16 02:26:09;;;;;;;1.83;1.73;;;12.50;99.90;;;;;;5133432;27;20042;-65
2023/08/16 02:28:35;;;;;;;2.85;1.90;;;12.50;99.90;;;;;;5133702;27;20039;-66
2023/08/16 02:31:05;;;;;;;2.90;2.05;;;12.40;99.90;;;;;;5152704;27;20485;-67
2023/08/16 02:33:32;;;;;;;3.30;2.13;;;12.40;99.90;;;;;;5137744;27;20053;-66
2023/08/16 02:35:58;;;;;;;2.33;2.00;;;12.30;99.90;;;;;;5137715;27;20046;-66
2023/08/16 02:38:24;;;;;;;2.63;1.80;;;12.30;99.90;;;;;;5138052;27;20504;-66
2023/08/16 02:40:49;;;;;;;3.10;1.80;;;12.30;99.90;;;;;;5137830;27;20074;-66
2023/08/16 02:43:15;;;;;;;2.80;1.70;;;12.20;99.90;;;;;;5137409;27;20083;-66
2023/08/16 02:45:41;;;;;;;2.22;1.88;;;12.20;99.90;;;;;;5137559;27;20031;-65
2023/08/16 02:48:06;;;;;;;3.15;1.70;;;12.20;99.90;;;;;;5137396;27;20034;-66
2023/08/16 02:50:32;;;;;;;4.75;1.77;;;12.20;99.90;;;;;;5137506;27;20031;-66
2023/08/16 02:52:57;;;;;;;2.97;2.10;;;12.20;99.90;;;;;;5137289;27;20050;-66
2023/08/16 02:55:23;;;;;;;2.42;1.80;;;12.20;99.90;;;;;;5137504;27;20452;-67
2023/08/16 02:57:49;;;;;;;2.95;1.60;;;12.20;99.90;;;;;;5156122;27;20038;-67
2023/08/16 03:00:15;;;;;;;2.13;1.80;;;12.20;99.90;;;;;;5137205;27;20504;-67
2023/08/16 03:02:41;;;;;;;2.90;1.77;;;12.10;99.90;;;;;;5137521;27;20457;-66
2023/08/16 03:05:06;;;;;;;2.92;1.77;;;12.10;99.90;;;;;;5136941;27;20094;-67
2023/08/16 03:07:32;;;;;;;3.05;1.80;;;12.00;99.90;;;;;;5137144;27;20461;-66
2023/08/16 03:09:58;;;;;;;2.20;1.95;;;12.00;99.90;;;;;;5136843;27;20034;-67
2023/08/16 03:12:24;;;;;;;3.83;2.08;;;12.00;99.90;;;;;;5136705;27;20118;-66
2023/08/16 03:14:49;;;;;;;3.67;2.00;;;12.10;99.90;;;;;;5137293;27;20054;-66
2023/08/16 03:17:15;;;;;;;1.95;1.75;;;12.10;99.90;;;;;;5136792;27;20062;-67
2023/08/16 03:19:41;;;;;;;4.38;1.90;;;12.10;99.90;;;;;;5137236;27;20043;-66
2023/08/16 03:22:07;;;;;;;2.67;1.90;;;12.20;99.90;;;;;;5136781;27;20123;-66
2023/08/16 03:24:32;;;;;;;2.97;1.77;;;12.20;99.90;;;;;;5136730;27;20027;-66
2023/08/16 03:26:58;;;;;;;4.03;2.05;;;12.20;99.90;;;;;;5136619;27;20038;-66
2023/08/16 03:29:24;;;;;;;2.63;1.90;;;12.20;99.90;;;;;;5136454;27;20054;-65
2023/08/16 03:31:49;;;;;;;4.45;2.80;;;12.20;99.90;;;;;;5136632;27;20062;-65
2023/08/16 03:34:16;;;;;;;3.97;2.63;;;12.20;99.90;;;;;;5136184;27;20086;-65
2023/08/16 03:36:42;;;;;;;4.57;2.90;;;12.20;99.90;;;;;;5136602;27;20034;-66
2023/08/16 03:39:07;;;;;;;2.90;2.53;;;12.20;99.90;;;;;;5136499;27;20038;-66
2023/08/16 03:41:37;;;;;;;3.10;2.67;;;12.20;99.90;;;;;;5136152;27;20076;-66
2023/08/16 03:44:06;;;;;;;5.13;2.60;;;12.20;99.90;;;;;;5136494;27;20047;-67
2023/08/16 03:46:32;;;;;;;4.30;2.63;;;12.30;99.90;;;;;;5136334;27;20066;-66
2023/08/16 03:48:57;;;;;;;4.68;2.47;;;12.30;99.90;;;;;;5136296;27;20154;-66
2023/08/16 03:51:23;;;;;;;3.08;2.35;;;12.30;99.90;;;;;;5118723;27;20042;-66
2023/08/16 03:53:49;;;;;;;3.42;2.70;;;12.30;99.90;;;;;;5136305;27;20054;-66
2023/08/16 03:56:14;;;;;;;2.67;2.42;;;12.30;99.90;;;;;;5135895;27;20043;-66
2023/08/16 03:58:40;;;;;;;3.92;2.33;;;12.30;99.90;;;;;;5136385;27;20039;-66
2023/08/16 04:01:06;;;;;;;3.70;2.33;;;12.30;99.90;;;;;;5118304;27;20115;-66
2023/08/16 04:03:31;;;;;;;2.30;2.10;;;12.30;99.90;;;;;;5118495;27;20099;-66
2023/08/16 04:05:57;;;;;;;4.60;2.40;;;12.20;99.90;;;;;;5135962;27;20045;-66
2023/08/16 04:08:22;;;;;;;5.53;2.38;;;12.30;99.90;;;;;;5135884;27;20031;-66
2023/08/16 04:10:48;;;;;;;2.30;2.10;;;12.20;99.90;;;;;;5118079;27;20069;-66
2023/08/16 04:13:14;;;;;;;2.65;2.28;;;12.20;99.90;;;;;;5135738;27;20085;-66
2023/08/16 04:15:39;;;;;;;3.67;2.45;;;12.20;99.90;;;;;;5135922;27;20069;-67
2023/08/16 04:18:05;;;;;;;3.33;2.53;;;12.20;99.90;;;;;;5118156;27;20046;-66
2023/08/16 04:20:31;;;;;;;3.95;2.10;;;12.20;99.90;;;;;;5135685;27;20045;-66
2023/08/16 04:22:56;;;;;;;3.67;2.45;;;12.20;99.90;;;;;;5135879;27;20038;-67
2023/08/16 04:25:22;;;;;;;4.38;2.53;;;12.20;99.90;;;;;;5135321;27;20038;-67
2023/08/16 04:27:47;;;;;;;3.53;1.98;;;12.20;99.90;;;;;;5135704;27;20038;-65
2023/08/16 04:30:13;;;;;;;2.60;2.28;;;12.10;99.90;;;;;;5135755;27;20074;-67
2023/08/16 04:32:39;;;;;;;2.38;2.10;;;12.10;99.90;;;;;;5135120;27;20053;-67
2023/08/16 04:35:05;;;;;;;2.67;2.42;;;12.10;99.90;;;;;;5135488;27;20076;-66
2023/08/16 04:37:31;;;;;;;3.53;3.10;;;12.10;99.90;;;;;;5135233;27;20038;-66
2023/08/16 04:39:56;;;;;;;4.97;2.70;;;12.10;99.90;;;;;;5134968;27;20413;-66
2023/08/16 04:42:22;;;;;;;3.70;2.47;;;12.10;99.90;;;;;;5135230;27;20070;-65
2023/08/16 04:44:48;;;;;;;3.75;2.20;;;12.10;99.90;;;;;;5135381;27;20511;-66
2023/08/16 04:47:14;;;;;;;7.57;2.97;;;12.10;99.90;;;;;;5117615;27;20138;-67
2023/08/16 04:49:39;;;;;;;3.53;2.90;;;12.10;99.90;;;;;;5134981;27;20504;-66
2023/08/16 04:52:05;;;;;;;3.67;3.13;;;12.10;99.90;;;;;;5135310;27;20084;-67
2023/08/16 04:54:31;;;;;;;4.18;2.80;;;12.10;99.90;;;;;;5133837;27;20042;-66
2023/08/16 04:56:58;;;;;;;4.15;2.67;;;12.10;99.90;;;;;;5135267;27;20561;-66
2023/08/16 04:59:23;;;;;;;4.72;2.67;;;12.10;99.90;;;;;;5134526;27;20039;-65
2023/08/16 05:01:49;;;;;;;4.35;2.70;;;12.20;99.90;;;;;;5118084;27;20047;-67
2023/08/16 05:04:15;;;;;;;5.07;2.70;;;12.20;99.90;;;;;;5134903;27;20129;-67
2023/08/16 05:06:41;;;;;;;3.53;3.00;;;12.30;99.90;;;;;;5135070;27;20473;-66
2023/08/16 05:09:07;;;;;;;7.43;2.95;;;12.30;99.90;;;;;;5135020;27;20082;-67
2023/08/16 05:11:32;;;;;;;2.90;2.70;;;12.40;99.90;;;;;;5134417;27;20038;-66
2023/08/16 05:13:58;;;;;;;5.00;3.20;;;12.50;99.90;;;;;;5135150;27;20078;-66
2023/08/16 05:16:24;;;;;;;5.60;3.65;;;12.50;99.90;;;;;;5134508;27;20042;-66
2023/08/16 05:18:52;;;;;;;5.72;3.40;;;12.50;99.90;;;;;;5134387;27;20141;-66
2023/08/16 05:21:18;;;;;;;4.65;3.30;;;12.70;99.90;;;;;;5134449;27;20046;-67
2023/08/16 05:23:44;;;;;;;4.78;3.20;;;12.70;99.90;;;;;;5134709;27;20405;-66
2023/08/16 05:26:10;;;;;;;9.27;4.50;;;12.90;99.90;;;;;;5134567;27;20046;-65
2023/08/16 05:28:36;;;;;;;4.95;3.58;;;12.90;99.90;;;;;;5134152;27;20138;-67
2023/08/16 05:31:11;;;;;;;6.05;3.70;;;13.00;99.90;;;;;;5134101;27;20475;-66
2023/08/16 05:33:38;;;;;;;6.43;3.60;;;13.10;99.90;;;;;;5134272;27;20047;-66
2023/08/16 05:36:05;;;;;;;5.32;3.65;;;13.20;99.90;;;;;;5134313;27;20610;-66
2023/08/16 05:38:30;;;;;;;4.80;4.30;;;13.20;99.90;;;;;;5134234;27;20094;-65
2023/08/16 05:40:57;;;;;;;6.15;3.38;;;13.30;99.90;;;;;;5116446;27;20450;-66
2023/08/16 05:43:23;;;;;;;3.58;3.17;;;13.40;99.90;;;;;;5133917;27;20396;-67
2023/08/16 05:45:48;;;;;;;6.25;3.95;;;13.50;99.90;;;;;;5116600;27;20047;-65
2023/08/16 05:48:14;;;;;;;5.00;3.95;;;13.70;99.90;;;;;;5116951;27;20095;-66
2023/08/16 05:50:41;;;;;;;6.05;4.32;;;13.90;99.90;;;;;;5133821;27;20027;-66
2023/08/16 05:53:07;;;;;;;5.97;4.55;;;14.00;99.90;;;;;;5134105;27;20393;-67
2023/08/16 05:55:33;;;;;;;6.32;4.65;;;14.20;99.90;;;;;;5133918;27;20026;-66
2023/08/16 05:57:58;;;;;;;8.52;4.28;;;14.40;99.90;;;;;;5133646;27;20066;-66
2023/08/16 06:00:24;;;;;;;5.10;4.32;;;14.50;99.90;;;;;;5133977;27;20550;-66
2023/08/16 06:02:49;;;;;;;8.38;4.95;;;14.60;99.90;;;;;;5133481;27;20035;-66
2023/08/16 06:05:15;;;;;;;6.80;4.60;;;14.70;99.90;;;;;;5133703;27;20051;-66
2023/08/16 06:07:41;;;;;;;6.63;4.07;;;14.90;99.90;;;;;;5133854;27;20113;-66
2023/08/16 06:10:07;;;;;;;7.63;5.00;;;15.00;99.90;;;;;;5152406;27;20030;-67
2023/08/16 06:12:33;;;;;;;7.60;4.97;;;15.10;99.90;;;;;;5133554;27;20072;-67
2023/08/16 06:14:58;;;;;;;6.13;5.28;;;15.20;99.90;;;;;;5133780;27;20047;-67
2023/08/16 06:17:24;;;;;;;5.47;4.93;;;15.20;99.90;;;;;;5133794;27;20046;-67
2023/08/16 06:19:50;;;;;;;6.57;5.80;;;15.30;99.90;;;;;;5152171;27;20051;-66
2023/08/16 06:22:16;;;;;;;8.35;6.13;;;15.40;99.90;;;;;;5152293;27;20384;-66
2023/08/16 06:24:42;;;;;;;8.60;6.07;;;15.60;99.90;;;;;;5133321;27;20401;-68
2023/08/16 06:27:08;;;;;;;9.38;6.45;;;15.60;99.90;;;;;;5133463;27;20511;-67
2023/08/16 06:29:35;;;;;;;8.00;6.22;;;15.60;99.90;;;;;;5133484;27;20038;-66
2023/08/16 06:32:01;;;;;;;10.65;6.55;;;15.70;99.90;;;;;;5133139;27;20058;-67
2023/08/16 06:34:27;;;;;;;8.52;6.60;;;15.80;99.90;;;;;;5133501;27;20038;-67
2023/08/16 06:36:53;;;;;;;9.02;5.93;;;15.80;99.90;;;;;;5133217;27;20049;-67
2023/08/16 06:39:19;;;;;;;7.20;6.20;;;15.90;99.90;;;;;;5116443;27;20162;-67
2023/08/16 06:41:45;;;;;;;11.10;6.15;;;16.00;99.90;;;;;;5151711;27;20452;-65
2023/08/16 06:44:11;;;;;;;7.20;6.43;;;16.20;99.90;;;;;;5133329;27;20125;-67
2023/08/16 06:46:36;;;;;;;7.30;6.03;;;16.30;99.90;;;;;;5133319;27;20030;-67
2023/08/16 06:49:02;;;;;;;10.55;6.10;;;16.50;99.90;;;;;;5130932;27;20141;-67
2023/08/16 06:51:28;;;;;;;7.35;5.70;;;16.70;99.90;;;;;;5095800;28;20494;-66
2023/08/16 06:53:53;;;;;;;8.43;5.38;;;17.00;99.90;;;;;;5112531;27;20043;-65
2023/08/16 06:56:19;;;;;;;8.00;5.60;;;17.10;99.90;;;;;;5113215;28;20042;-67
2023/08/16 06:58:44;;;;;;;6.95;5.28;;;17.30;99.90;;;;;;5112717;27;20047;-66
2023/08/16 07:01:11;;;;;;;10.23;5.63;;;17.50;99.90;;;;;;5130984;27;20027;-66
2023/08/16 07:03:37;;;;;;;7.25;4.95;;;17.60;99.90;;;;;;5112654;28;20051;-67
2023/08/16 07:06:03;;;;;;;6.95;4.88;;;17.60;99.90;;;;;;5112456;27;20137;-66
2023/08/16 07:08:29;;;;;;;8.43;5.57;;;17.60;99.90;;;;;;5112740;28;20394;-66
2023/08/16 07:10:54;;;;;;;9.20;5.30;;;17.50;99.90;;;;;;5112659;27;20039;-65
2023/08/16 07:13:20;;;;;;;6.63;5.53;;;17.60;99.90;;;;;;5112854;28;20043;-66
2023/08/16 07:15:46;;;;;;;9.00;6.13;;;17.60;99.90;;;;;;5112807;27;20037;-65
2023/08/16 07:18:12;;;;;;;10.07;6.70;;;17.60;99.90;;;;;;5133555;27;20070;-66
2023/08/16 07:20:39;;;;;;;7.90;6.93;;;17.70;99.90;;;;;;5116422;27;20043;-67
2023/08/16 07:23:06;;;;;;;9.82;6.80;;;17.80;99.90;;;;;;5115626;27;20119;-67
2023/08/16 07:25:32;;;;;;;8.80;6.90;;;18.00;99.90;;;;;;5115590;27;20493;-67
2023/08/16 07:27:58;;;;;;;8.55;6.90;;;18.20;99.90;;;;;;5115489;27;20405;-67
2023/08/16 07:30:24;;;;;;;10.82;6.72;;;18.40;99.90;;;;;;5116504;27;20043;-66
2023/08/16 07:32:50;;;;;;;8.00;6.35;;;18.60;99.90;;;;;;5115745;27;20062;-67
2023/08/16 07:35:16;;;;;;;7.45;6.60;;;18.80;99.90;;;;;;5115902;27;20082;-67
2023/08/16 07:37:43;;;;;;;10.40;6.75;;;19.00;99.90;;;;;;5116064;27;20035;-66
2023/08/16 07:40:10;;;;;;;7.63;5.55;;;19.10;99.90;;;;;;5098740;27;20126;-67
2023/08/16 07:42:36;;;;;;;8.65;6.07;;;19.10;99.90;;;;;;5116005;27;20035;-67
2023/08/16 07:45:03;;;;;;;8.68;5.30;;;19.10;99.90;;;;;;5134082;27;20039;-67
2023/08/16 07:47:29;;;;;;;5.75;5.10;;;19.30;99.90;;;;;;5098734;27;20031;-67
2023/08/16 07:49:54;;;;;;;7.43;4.80;;;19.30;99.90;;;;;;5116034;27;20054;-68
2023/08/16 07:52:20;;;;;;;5.68;3.83;;;19.40;99.90;;;;;;5115550;27;20058;-67
2023/08/16 07:54:46;;;;;;;13.15;3.90;;;19.60;99.90;;;;;;5098513;27;20051;-66
2023/08/16 07:57:12;;;;;;;6.65;4.10;;;19.80;99.90;;;;;;5115390;27;20047;-66
2023/08/16 07:59:39;;;;;;;6.97;3.88;;;19.80;99.90;;;;;;5098884;27;20382;-67
2023/08/16 08:02:06;;;;;;;8.02;3.50;;;19.90;99.90;;;;;;5115349;27;20053;-66
2023/08/16 08:04:32;;;;;;;5.10;3.10;;;20.00;99.90;;;;;;5115609;27;20067;-66
2023/08/16 08:06:58;;;;;;;4.80;2.90;;;20.20;99.90;;;;;;5115350;27;20046;-66
2023/08/16 08:09:24;;;;;;;4.82;3.33;;;20.40;99.90;;;;;;5115391;27;20035;-67
2023/08/16 08:11:50;;;;;;;6.15;2.95;;;20.50;99.90;;;;;;5115463;27;20074;-66
2023/08/16 08:14:16;;;;;;;3.53;2.53;;;20.70;99.90;;;;;;5115154;27;20050;-67
2023/08/16 08:16:42;;;;;;;7.15;2.83;;;20.90;99.90;;;;;;5098399;27;20031;-67
2023/08/16 08:19:07;;;;;;;5.47;2.50;;;21.00;99.90;;;;;;5115129;27;20101;-66
2023/08/16 08:21:33;;;;;;;4.10;2.47;;;21.20;99.90;;;;;;5114976;27;20114;-67
2023/08/16 08:23:59;;;;;;;4.05;2.58;;;21.30;99.90;;;;;;5097965;27;20375;-69
2023/08/16 08:26:26;;;;;;;3.47;2.20;;;21.30;99.90;;;;;;5133556;27;20083;-66
2023/08/16 08:28:52;;;;;;;6.47;2.42;;;21.30;99.90;;;;;;5133538;27;20036;-68
2023/08/16 08:31:17;;;;;;;4.13;2.00;;;21.40;99.90;;;;;;5097646;27;20058;-68
2023/08/16 08:33:45;;;;;;;3.92;1.67;;;21.40;99.90;;;;;;5114876;27;20505;-67
2023/08/16 08:36:11;;;;;;;3.75;1.70;;;21.60;99.90;;;;;;5114786;27;20048;-67
2023/08/16 08:38:37;;;;;;;5.68;1.77;;;21.70;99.90;;;;;;5114618;27;20046;-67
2023/08/16 08:41:03;;;;;;;2.33;1.65;;;21.80;99.90;;;;;;5114804;27;20126;-67
2023/08/16 08:43:36;;;;;;;1.92;1.40;;;22.00;99.90;;;;;;5114797;27;20445;-67
2023/08/16 08:46:04;;;;;;;4.20;1.50;;;22.10;99.90;;;;;;5097827;27;20039;-66
2023/08/16 08:48:30;;;;;;;3.08;1.20;;;22.30;99.90;;;;;;5114862;27;20063;-67
2023/08/16 08:50:57;;;;;;;3.53;1.33;;;22.30;99.90;;;;;;5114700;27;20039;-66
2023/08/16 08:53:25;;;;;;;4.53;1.60;;;22.50;99.90;;;;;;5114471;27;20043;-66
2023/08/16 08:55:52;;;;;;;6.03;1.50;;;22.60;99.90;;;;;;5114747;27;20533;-67
2023/08/16 08:58:19;;;;;;;5.90;1.30;;;22.70;99.90;;;;;;5114396;27;20039;-67
2023/08/16 09:00:46;;;;;;;3.33;1.08;;;22.90;99.90;;;;;;5114371;27;20047;-68
2023/08/16 09:03:12;;;;;;;3.75;1.10;;;23.00;99.90;;;;;;5097353;27;20496;-67
2023/08/16 09:05:40;;;;;;;2.08;0.90;;;23.10;99.90;;;;;;5132488;27;20047;-66
2023/08/16 09:08:07;;;;;;;2.00;0.90;;;23.20;99.90;;;;;;5114385;27;20042;-68
2023/08/16 09:10:36;;;;;;;0.82;0.80;;;23.30;99.90;;;;;;5113945;27;20116;-68
2023/08/16 09:13:04;;;;;;;4.13;1.10;;;23.40;99.90;;;;;;5114446;27;20047;-67
2023/08/16 09:15:29;;;;;;;2.35;1.35;;;23.40;99.90;;;;;;5114385;27;20394;-66
2023/08/16 09:18:06;;;;;;;2.67;0.93;;;23.50;99.90;;;;;;5132480;27;20039;-65
2023/08/16 09:20:32;;;;;;;3.15;1.08;;;23.60;99.90;;;;;;5113633;27;20047;-68
2023/08/16 09:22:57;;;;;;;2.15;0.90;;;23.60;99.90;;;;;;5114131;27;20046;-67
2023/08/16 09:25:24;;;;;;;0.80;0.70;;;23.70;99.90;;;;;;5113884;27;20529;-67
2023/08/16 09:27:52;;;;;;;3.65;0.90;;;23.90;99.90;;;;;;5127705;27;20038;-67
2023/08/16 09:30:19;;;;;;;1.95;1.00;;;23.90;99.90;;;;;;5134437;27;20042;-66
2023/08/16 09:32:45;;;;;;;2.92;0.80;;;24.00;99.90;;;;;;5152545;27;20099;-67
2023/08/16 09:35:16;;;;;;;1.77;1.00;;;24.10;99.90;;;;;;5134380;27;20046;-67
2023/08/16 09:37:45;;;;;;;2.00;0.90;;;24.20;99.90;;;;;;5134075;27;20342;-67
2023/08/16 09:40:11;;;;;;;3.53;1.35;;;24.20;99.90;;;;;;5133860;27;20038;-68
2023/08/16 09:42:37;;;;;;;2.33;1.30;;;24.30;99.90;;;;;;5133975;27;20543;-67
2023/08/16 09:45:03;;;;;;;3.75;1.10;;;24.30;99.90;;;;;;5134005;27;20070;-68
2023/08/16 09:47:30;;;;;;;2.95;1.27;;;24.30;99.90;;;;;;5134132;27;20070;-66
2023/08/16 09:50:00;;;;;;;4.82;1.17;;;24.50;99.90;;;;;;5134154;27;20034;-68
2023/08/16 09:52:28;;;;;;;2.55;0.98;;;24.60;99.90;;;;;;5133949;27;20042;-68
2023/08/16 09:54:55;;;;;;;1.67;0.82;;;24.70;99.90;;;;;;5133808;27;20039;-68
2023/08/16 09:57:21;;;;;;;2.00;0.75;;;24.80;99.90;;;;;;5134063;27;20450;-66
2023/08/16 09:59:48;;;;;;;2.05;0.85;;;24.90;99.90;;;;;;5152137;27;20062;-68
2023/08/16 10:02:14;;;;;;;2.05;1.00;;;25.00;99.90;;;;;;5133929;27;20042;-68
2023/08/16 10:04:40;;;;;;;1.77;0.88;;;25.00;99.10;;;;;;5116432;27;20039;-66
2023/08/16 10:07:06;;;;;;;2.55;0.70;;;25.00;99.20;;;;;;5116622;27;20057;-68
2023/08/16 10:09:33;;;;;;;1.60;0.60;;;25.00;99.30;;;;;;5134158;27;20503;-69
2023/08/16 10:12:02;;;;;;;1.45;0.70;;;25.20;99.80;;;;;;5133948;27;20038;-67
2023/08/16 10:14:29;;;;;;;1.38;0.80;;;25.30;98.70;;;;;;5133798;27;20485;-68
2023/08/16 10:16:59;;;;;;;3.03;0.68;;;25.40;97.90;;;;;;5132350;27;20168;-72
2023/08/16 10:19:27;;;;;;;2.65;0.70;;;25.50;96.90;;;;;;5133486;27;20125;-66
2023/08/16 10:21:54;;;;;;;2.08;0.60;;;25.70;96.50;;;;;;5133546;27;20051;-64
2023/08/16 10:24:21;;;;;;;1.75;0.50;;;25.70;96.00;;;;;;5133397;27;20125;-64
2023/08/16 10:26:49;;;;;;;1.35;0.60;;;25.90;95.60;;;;;;5132604;27;20540;-65
2023/08/16 10:29:20;;;;;;;3.85;0.85;;;26.00;95.40;;;;;;5132734;27;20430;-65
2023/08/16 10:31:48;;;;;;;2.20;0.60;;;26.00;94.90;;;;;;5133387;27;20415;-64
2023/08/16 10:34:15;;;;;;;1.55;0.50;;;26.20;94.60;;;;;;5132688;27;20043;-65
2023/08/16 10:36:41;;;;;;;1.42;0.70;;;26.30;93.90;;;;;;5133269;27;20113;-64
2023/08/16 10:39:07;;;;;;;1.15;0.50;;;26.40;94.00;;;;;;5133256;27;20051;-65
2023/08/16 10:41:40;;;;;;;1.98;0.52;;;26.50;94.40;;;;;;5151915;27;20042;-64
2023/08/16 10:44:07;;;;;;;1.23;0.55;;;26.50;93.80;;;;;;5115487;27;20046;-64
2023/08/16 10:46:37;;;;;;;1.40;0.68;;;26.60;94.00;;;;;;5133353;27;20050;-62
2023/08/16 10:49:07;;;;;;;1.23;0.50;;;26.70;93.00;;;;;;5133503;27;20030;-64
2023/08/16 10:51:48;;;;;;;0.70;0.45;;;26.90;93.40;;;;;;5133664;27;20031;-67
2023/08/16 10:54:15;;;;;;;1.23;0.60;;;26.80;91.30;;;;;;5137151;27;20074;-64
2023/08/16 10:56:49;;;;;;;0.68;0.45;;;26.70;91.90;;;;;;5137161;27;20038;-68
2023/08/16 10:59:16;;;;;;;0.80;0.50;;;26.80;92.00;;;;;;5137425;27;20081;-67
2023/08/16 11:01:50;;;;;;;0.65;0.45;;;26.70;92.60;;;;;;5136998;27;20042;-67
2023/08/16 11:04:16;;;;;;;1.50;0.85;;;26.60;91.40;;;;;;5136690;27;20078;-67
2023/08/16 11:06:43;;;;;;;0.82;0.52;;;26.50;92.10;;;;;;5119450;27;20054;-67
2023/08/16 11:09:09;;;;;;;0.77;0.50;;;26.50;92.10;;;;;;5137057;27;20515;-70
2023/08/16 11:11:35;;;;;;;1.55;0.57;;;26.40;91.50;;;;;;5136988;27;20451;-68
2023/08/16 11:14:02;;;;;;;1.13;0.60;;;26.20;91.70;;;;;;5136706;27;20042;-65
2023/08/16 11:16:28;;;;;;;0.98;0.63;;;26.20;92.20;;;;;;5119049;27;20056;-64
2023/08/16 11:18:58;;;;;;;1.90;0.60;;;26.00;92.50;;;;;;5136339;27;20082;-65
2023/08/16 11:21:25;;;;;;;1.43;0.70;;;25.70;92.20;;;;;;5136790;27;20055;-65
2023/08/16 11:23:53;;;;;;;3.53;0.98;;;25.30;92.30;;;;;;5135890;27;20054;-63
2023/08/16 11:26:19;;;;;;;1.38;0.75;;;25.10;93.20;;;;;;5155355;27;20027;-62
2023/08/16 11:28:45;;;;;;;1.52;0.95;;;25.10;93.80;;;;;;5136668;27;20054;-62
2023/08/16 11:31:11;;;;;;;2.05;0.80;;;25.20;93.30;;;;;;5155047;27;20477;-63
2023/08/16 11:33:40;;;;;;;2.03;0.80;;;25.20;93.30;;;;;;5119378;27;20050;-63
2023/08/16 11:36:15;;;;;;;2.08;0.60;;;25.20;93.40;;;;;;5136385;27;20074;-62
2023/08/16 11:38:41;;;;;;;2.03;0.80;;;25.20;93.90;;;;;;5136860;27;20035;-64
2023/08/16 11:41:07;;;;;;;1.40;0.75;;;25.20;93.30;;;;;;5136296;27;20046;-63
2023/08/16 11:43:34;;;;;;;1.85;0.88;;;25.30;93.50;;;;;;5136333;27;20042;-63
2023/08/16 11:46:01;;;;;;;2.92;0.90;;;25.50;93.40;;;;;;5135466;27;20050;-62
2023/08/16 11:48:30;;;;;;;2.78;0.90;;;25.50;93.10;;;;;;5119491;27;20069;-65
2023/08/16 11:50:56;;;;;;;3.25;0.90;;;25.60;92.90;;;;;;5154871;27;20048;-62
2023/08/16 11:53:33;;;;;;;1.77;0.68;;;25.40;92.50;;;;;;5136403;27;20035;-63
2023/08/16 11:55:59;;;;;;;2.00;0.80;;;25.60;92.70;;;;;;5135756;27;20043;-66
2023/08/16 11:58:25;;;;;;;1.15;0.70;;;25.70;92.80;;;;;;5135129;27;20035;-67
2023/08/16 12:00:51;;;;;;;2.47;0.98;;;25.80;92.70;;;;;;5135965;27;20042;-68
2023/08/16 12:03:17;;;;;;;1.77;0.80;;;25.80;93.00;;;;;;5135362;27;20031;-66
2023/08/16 12:05:45;;;;;;;1.70;0.65;;;25.80;92.40;;;;;;5136000;27;20579;-65
2023/08/16 12:08:13;;;;;;;2.30;0.63;;;25.90;92.10;;;;;;5135844;27;20097;-66
2023/08/16 12:10:40;;;;;;;1.88;0.77;;;26.00;91.70;;;;;;5119112;27;20469;-66
2023/08/16 12:13:13;;;;;;;0.98;0.68;;;26.00;91.20;;;;;;5135653;27;20050;-68
2023/08/16 12:15:40;;;;;;;3.80;0.93;;;26.10;92.10;;;;;;5136151;27;20083;-66
2023/08/16 12:18:06;;;;;;;0.95;0.60;;;26.10;92.60;;;;;;5118699;27;20431;-65
2023/08/16 12:20:32;;;;;;;1.83;0.65;;;26.00;92.70;;;;;;5154512;27;20027;-67
2023/08/16 12:23:02;;;;;;;1.77;0.60;;;25.80;92.40;;;;;;5154353;27;20049;-67
2023/08/16 12:25:28;;;;;;;2.30;0.80;;;25.60;92.50;;;;;;5135460;27;20047;-67
2023/08/16 12:27:53;;;;;;;2.15;0.60;;;25.50;92.20;;;;;;5135691;27;20045;-65
2023/08/16 12:30:19;;;;;;;1.10;0.80;;;25.30;92.80;;;;;;5135658;27;20505;-67
2023/08/16 12:32:45;;;;;;;1.70;0.82;;;24.90;93.10;;;;;;5135568;27;20146;-65
2023/08/16 12:35:10;;;;;;;3.60;0.70;;;24.80;94.10;;;;;;5135577;27;20085;-66
2023/08/16 12:37:36;;;;;;;2.22;0.68;;;24.80;93.50;;;;;;5135784;27;20069;-66
2023/08/16 12:40:02;;;;;;;1.35;0.52;;;24.80;92.70;;;;;;5135438;27;20034;-66
2023/08/16 12:42:27;;;;;;;1.17;0.70;;;24.80;92.70;;;;;;5115881;27;20042;-66